sensor_id;sensor_type;location;lat;lon;timestamp;P1;durP1;ratioP1;P2;durP2;ratioP2
59976;SDS011;45837;51.076;3.578;2024-01-30T00:02:12;5.25;;;2.97;;
59976;SDS011;45837;51.076;3.578;2024-01-30T00:04:37;7.00;;;2.28;;
59976;SDS011;45837;51.076;3.578;2024-01-30T00:07:03;5.82;;;2.35;;
59976;SDS011;45837;51.076;3.578;2024-01-30T00:09:29;8.27;;;2.53;;
59976;SDS011;45837;51.076;3.578;2024-01-30T00:11:56;4.50;;;2.28;;
59976;SDS011;45837;51.076;3.578;2024-01-30T00:14:22;5.28;;;2.28;;
59976;SDS011;45837;51.076;3.578;2024-01-30T00:16:48;6.28;;;2.45;;
59976;SDS011;45837;51.076;3.578;2024-01-30T00:19:14;6.03;;;2.60;;
59976;SDS011;45837;51.076;3.578;2024-01-30T00:21:40;6.68;;;2.40;;
59976;SDS011;45837;51.076;3.578;2024-01-30T00:24:06;5.30;;;2.50;;
59976;SDS011;45837;51.076;3.578;2024-01-30T00:26:34;5.80;;;3.00;;
59976;SDS011;45837;51.076;3.578;2024-01-30T00:29:00;5.43;;;2.28;;
59976;SDS011;45837;51.076;3.578;2024-01-30T00:31:26;5.95;;;2.28;;
59976;SDS011;45837;51.076;3.578;2024-01-30T00:33:52;4.32;;;2.50;;
59976;SDS011;45837;51.076;3.578;2024-01-30T00:36:18;6.15;;;2.80;;
59976;SDS011;45837;51.076;3.578;2024-01-30T00:38:44;4.63;;;2.30;;
59976;SDS011;45837;51.076;3.578;2024-01-30T00:41:10;8.20;;;2.33;;
59976;SDS011;45837;51.076;3.578;2024-01-30T00:43:36;7.70;;;2.75;;
59976;SDS011;45837;51.076;3.578;2024-01-30T00:46:02;5.07;;;2.30;;
59976;SDS011;45837;51.076;3.578;2024-01-30T00:48:28;5.55;;;2.00;;
59976;SDS011;45837;51.076;3.578;2024-01-30T00:50:54;5.47;;;2.40;;
59976;SDS011;45837;51.076;3.578;2024-01-30T00:53:23;4.00;;;2.17;;
59976;SDS011;45837;51.076;3.578;2024-01-30T00:56:09;3.97;;;2.20;;
59976;SDS011;45837;51.076;3.578;2024-01-30T00:58:48;4.43;;;2.13;;
59976;SDS011;45837;51.076;3.578;2024-01-30T01:01:26;4.28;;;2.20;;
59976;SDS011;45837;51.076;3.578;2024-01-30T01:03:54;5.03;;;2.50;;
59976;SDS011;45837;51.076;3.578;2024-01-30T01:06:20;6.43;;;2.40;;
59976;SDS011;45837;51.076;3.578;2024-01-30T01:08:46;5.35;;;2.28;;
59976;SDS011;45837;51.076;3.578;2024-01-30T01:11:12;5.55;;;2.45;;
59976;SDS011;45837;51.076;3.578;2024-01-30T01:13:38;3.67;;;2.17;;
59976;SDS011;45837;51.076;3.578;2024-01-30T01:16:03;4.32;;;1.65;;
59976;SDS011;45837;51.076;3.578;2024-01-30T01:18:30;8.27;;;2.75;;
59976;SDS011;45837;51.076;3.578;2024-01-30T01:20:55;3.78;;;2.20;;
59976;SDS011;45837;51.076;3.578;2024-01-30T01:23:21;5.95;;;2.47;;
59976;SDS011;45837;51.076;3.578;2024-01-30T01:25:47;4.13;;;2.20;;
59976;SDS011;45837;51.076;3.578;2024-01-30T01:28:13;4.65;;;1.90;;
59976;SDS011;45837;51.076;3.578;2024-01-30T01:30:39;4.88;;;2.20;;
59976;SDS011;45837;51.076;3.578;2024-01-30T01:33:05;6.05;;;2.38;;
59976;SDS011;45837;51.076;3.578;2024-01-30T01:35:31;4.45;;;2.28;;
59976;SDS011;45837;51.076;3.578;2024-01-30T01:37:57;3.33;;;1.92;;
59976;SDS011;45837;51.076;3.578;2024-01-30T01:40:28;4.85;;;2.28;;
59976;SDS011;45837;51.076;3.578;2024-01-30T01:42:55;4.63;;;1.52;;
59976;SDS011;45837;51.076;3.578;2024-01-30T01:45:21;5.18;;;2.78;;
59976;SDS011;45837;51.076;3.578;2024-01-30T01:47:48;3.97;;;2.42;;
59976;SDS011;45837;51.076;3.578;2024-01-30T01:50:18;3.97;;;2.35;;
59976;SDS011;45837;51.076;3.578;2024-01-30T01:52:48;6.88;;;2.53;;
59976;SDS011;45837;51.076;3.578;2024-01-30T01:55:15;4.32;;;2.30;;
59976;SDS011;45837;51.076;3.578;2024-01-30T01:57:43;4.32;;;1.90;;
59976;SDS011;45837;51.076;3.578;2024-01-30T02:00:10;4.97;;;2.25;;
59976;SDS011;45837;51.076;3.578;2024-01-30T02:02:37;5.10;;;2.25;;
59976;SDS011;45837;51.076;3.578;2024-01-30T02:05:04;3.67;;;2.03;;
59976;SDS011;45837;51.076;3.578;2024-01-30T02:07:30;4.80;;;2.30;;
59976;SDS011;45837;51.076;3.578;2024-01-30T02:09:56;3.67;;;2.30;;
59976;SDS011;45837;51.076;3.578;2024-01-30T02:12:22;4.28;;;2.08;;
59976;SDS011;45837;51.076;3.578;2024-01-30T02:14:48;9.88;;;2.63;;
59976;SDS011;45837;51.076;3.578;2024-01-30T02:17:15;4.03;;;2.25;;
59976;SDS011;45837;51.076;3.578;2024-01-30T02:19:41;5.00;;;2.15;;
59976;SDS011;45837;51.076;3.578;2024-01-30T02:22:06;3.22;;;1.80;;
59976;SDS011;45837;51.076;3.578;2024-01-30T02:24:33;3.50;;;1.80;;
59976;SDS011;45837;51.076;3.578;2024-01-30T02:26:59;5.88;;;2.58;;
59976;SDS011;45837;51.076;3.578;2024-01-30T02:29:25;2.70;;;1.80;;
59976;SDS011;45837;51.076;3.578;2024-01-30T02:31:50;3.97;;;1.88;;
59976;SDS011;45837;51.076;3.578;2024-01-30T02:34:18;4.28;;;2.33;;
59976;SDS011;45837;51.076;3.578;2024-01-30T02:36:44;4.70;;;2.28;;
59976;SDS011;45837;51.076;3.578;2024-01-30T02:39:10;5.55;;;2.17;;
59976;SDS011;45837;51.076;3.578;2024-01-30T02:41:36;3.88;;;2.13;;
59976;SDS011;45837;51.076;3.578;2024-01-30T02:44:02;5.55;;;2.55;;
59976;SDS011;45837;51.076;3.578;2024-01-30T02:46:29;4.00;;;2.30;;
59976;SDS011;45837;51.076;3.578;2024-01-30T02:48:54;5.30;;;2.70;;
59976;SDS011;45837;51.076;3.578;2024-01-30T02:51:20;4.22;;;2.03;;
59976;SDS011;45837;51.076;3.578;2024-01-30T02:53:46;4.25;;;1.92;;
59976;SDS011;45837;51.076;3.578;2024-01-30T02:56:12;4.50;;;2.47;;
59976;SDS011;45837;51.076;3.578;2024-01-30T02:58:39;3.25;;;1.80;;
59976;SDS011;45837;51.076;3.578;2024-01-30T03:01:05;5.30;;;2.20;;
59976;SDS011;45837;51.076;3.578;2024-01-30T03:03:32;5.28;;;2.05;;
59976;SDS011;45837;51.076;3.578;2024-01-30T03:06:00;5.30;;;2.38;;
59976;SDS011;45837;51.076;3.578;2024-01-30T03:08:27;3.97;;;1.83;;
59976;SDS011;45837;51.076;3.578;2024-01-30T03:10:53;4.30;;;1.95;;
59976;SDS011;45837;51.076;3.578;2024-01-30T03:13:19;3.10;;;1.75;;
59976;SDS011;45837;51.076;3.578;2024-01-30T03:15:45;4.20;;;2.13;;
59976;SDS011;45837;51.076;3.578;2024-01-30T03:18:11;3.05;;;1.67;;
59976;SDS011;45837;51.076;3.578;2024-01-30T03:20:37;3.42;;;2.10;;
59976;SDS011;45837;51.076;3.578;2024-01-30T03:23:02;4.35;;;2.08;;
59976;SDS011;45837;51.076;3.578;2024-01-30T03:25:28;5.78;;;2.20;;
59976;SDS011;45837;51.076;3.578;2024-01-30T03:27:54;5.03;;;2.30;;
59976;SDS011;45837;51.076;3.578;2024-01-30T03:30:20;4.07;;;2.10;;
59976;SDS011;45837;51.076;3.578;2024-01-30T03:32:46;3.58;;;2.03;;
59976;SDS011;45837;51.076;3.578;2024-01-30T03:35:11;4.75;;;2.10;;
59976;SDS011;45837;51.076;3.578;2024-01-30T03:37:37;4.85;;;2.20;;
59976;SDS011;45837;51.076;3.578;2024-01-30T03:40:03;3.30;;;1.85;;
59976;SDS011;45837;51.076;3.578;2024-01-30T03:42:29;2.95;;;2.10;;
59976;SDS011;45837;51.076;3.578;2024-01-30T03:44:56;2.60;;;1.88;;
59976;SDS011;45837;51.076;3.578;2024-01-30T03:47:22;4.53;;;2.30;;
59976;SDS011;45837;51.076;3.578;2024-01-30T03:49:47;3.47;;;1.75;;
59976;SDS011;45837;51.076;3.578;2024-01-30T03:52:13;3.17;;;2.00;;
59976;SDS011;45837;51.076;3.578;2024-01-30T03:54:39;3.78;;;1.92;;
59976;SDS011;45837;51.076;3.578;2024-01-30T03:57:05;4.50;;;2.25;;
59976;SDS011;45837;51.076;3.578;2024-01-30T03:59:31;2.85;;;1.90;;
59976;SDS011;45837;51.076;3.578;2024-01-30T04:01:59;4.13;;;2.15;;
59976;SDS011;45837;51.076;3.578;2024-01-30T04:04:25;4.18;;;1.90;;
59976;SDS011;45837;51.076;3.578;2024-01-30T04:06:51;4.00;;;2.00;;
59976;SDS011;45837;51.076;3.578;2024-01-30T04:09:17;3.33;;;1.95;;
59976;SDS011;45837;51.076;3.578;2024-01-30T04:11:42;3.10;;;2.00;;
59976;SDS011;45837;51.076;3.578;2024-01-30T04:14:08;4.15;;;2.10;;
59976;SDS011;45837;51.076;3.578;2024-01-30T04:16:34;3.90;;;2.08;;
59976;SDS011;45837;51.076;3.578;2024-01-30T04:19:00;3.22;;;1.70;;
59976;SDS011;45837;51.076;3.578;2024-01-30T04:21:25;4.00;;;1.92;;
59976;SDS011;45837;51.076;3.578;2024-01-30T04:23:51;3.38;;;1.90;;
59976;SDS011;45837;51.076;3.578;2024-01-30T04:26:18;4.70;;;1.77;;
59976;SDS011;45837;51.076;3.578;2024-01-30T04:28:44;4.03;;;2.10;;
59976;SDS011;45837;51.076;3.578;2024-01-30T04:31:10;4.78;;;2.22;;
59976;SDS011;45837;51.076;3.578;2024-01-30T04:33:36;2.85;;;1.80;;
59976;SDS011;45837;51.076;3.578;2024-01-30T04:36:03;3.72;;;2.10;;
59976;SDS011;45837;51.076;3.578;2024-01-30T04:38:30;3.85;;;2.20;;
59976;SDS011;45837;51.076;3.578;2024-01-30T04:40:56;3.38;;;2.13;;
59976;SDS011;45837;51.076;3.578;2024-01-30T04:43:22;3.85;;;1.85;;
59976;SDS011;45837;51.076;3.578;2024-01-30T04:45:48;3.95;;;2.10;;
59976;SDS011;45837;51.076;3.578;2024-01-30T04:48:14;2.97;;;1.80;;
59976;SDS011;45837;51.076;3.578;2024-01-30T04:50:40;3.60;;;2.08;;
59976;SDS011;45837;51.076;3.578;2024-01-30T04:53:06;2.75;;;1.85;;
59976;SDS011;45837;51.076;3.578;2024-01-30T04:55:32;3.92;;;1.85;;
59976;SDS011;45837;51.076;3.578;2024-01-30T04:58:00;4.25;;;2.15;;
59976;SDS011;45837;51.076;3.578;2024-01-30T05:00:26;3.70;;;2.38;;
59976;SDS011;45837;51.076;3.578;2024-01-30T05:02:52;3.35;;;2.38;;
59976;SDS011;45837;51.076;3.578;2024-01-30T05:05:20;4.45;;;2.08;;
59976;SDS011;45837;51.076;3.578;2024-01-30T05:07:47;4.72;;;2.33;;
59976;SDS011;45837;51.076;3.578;2024-01-30T05:10:13;3.13;;;1.92;;
59976;SDS011;45837;51.076;3.578;2024-01-30T05:12:45;5.70;;;2.15;;
59976;SDS011;45837;51.076;3.578;2024-01-30T05:15:10;2.88;;;1.80;;
59976;SDS011;45837;51.076;3.578;2024-01-30T05:17:36;6.60;;;2.28;;
59976;SDS011;45837;51.076;3.578;2024-01-30T05:20:02;4.15;;;1.73;;
59976;SDS011;45837;51.076;3.578;2024-01-30T05:22:29;4.15;;;2.03;;
59976;SDS011;45837;51.076;3.578;2024-01-30T05:24:55;15.98;;;2.47;;
59976;SDS011;45837;51.076;3.578;2024-01-30T05:27:21;10.23;;;2.55;;
59976;SDS011;45837;51.076;3.578;2024-01-30T05:29:47;10.00;;;2.63;;
59976;SDS011;45837;51.076;3.578;2024-01-30T05:32:13;4.47;;;2.20;;
59976;SDS011;45837;51.076;3.578;2024-01-30T05:34:39;6.43;;;2.08;;
59976;SDS011;45837;51.076;3.578;2024-01-30T05:37:04;4.60;;;2.35;;
59976;SDS011;45837;51.076;3.578;2024-01-30T05:39:31;12.05;;;2.58;;
59976;SDS011;45837;51.076;3.578;2024-01-30T05:41:58;11.02;;;2.13;;
59976;SDS011;45837;51.076;3.578;2024-01-30T05:44:24;9.35;;;2.30;;
59976;SDS011;45837;51.076;3.578;2024-01-30T05:46:49;8.48;;;2.33;;
59976;SDS011;45837;51.076;3.578;2024-01-30T05:49:15;10.20;;;2.30;;
59976;SDS011;45837;51.076;3.578;2024-01-30T05:51:41;11.70;;;2.20;;
59976;SDS011;45837;51.076;3.578;2024-01-30T05:54:07;14.65;;;2.60;;
59976;SDS011;45837;51.076;3.578;2024-01-30T05:56:32;6.60;;;2.10;;
59976;SDS011;45837;51.076;3.578;2024-01-30T05:58:58;15.65;;;2.80;;
59976;SDS011;45837;51.076;3.578;2024-01-30T06:01:24;18.88;;;3.03;;
59976;SDS011;45837;51.076;3.578;2024-01-30T06:03:50;16.20;;;2.85;;
59976;SDS011;45837;51.076;3.578;2024-01-30T06:06:16;10.90;;;2.78;;
59976;SDS011;45837;51.076;3.578;2024-01-30T06:08:41;16.95;;;3.33;;
59976;SDS011;45837;51.076;3.578;2024-01-30T06:11:09;13.43;;;2.65;;
59976;SDS011;45837;51.076;3.578;2024-01-30T06:13:36;12.68;;;2.63;;
59976;SDS011;45837;51.076;3.578;2024-01-30T06:16:02;18.63;;;3.47;;
59976;SDS011;45837;51.076;3.578;2024-01-30T06:18:27;14.65;;;3.03;;
59976;SDS011;45837;51.076;3.578;2024-01-30T06:20:55;9.00;;;2.92;;
59976;SDS011;45837;51.076;3.578;2024-01-30T06:23:21;10.77;;;2.53;;
59976;SDS011;45837;51.076;3.578;2024-01-30T06:25:47;9.13;;;2.78;;
59976;SDS011;45837;51.076;3.578;2024-01-30T06:28:12;22.05;;;3.25;;
59976;SDS011;45837;51.076;3.578;2024-01-30T06:30:38;25.13;;;3.25;;
59976;SDS011;45837;51.076;3.578;2024-01-30T06:33:04;15.40;;;2.67;;
59976;SDS011;45837;51.076;3.578;2024-01-30T06:35:30;12.55;;;3.05;;
59976;SDS011;45837;51.076;3.578;2024-01-30T06:37:55;14.98;;;2.63;;
59976;SDS011;45837;51.076;3.578;2024-01-30T06:40:21;11.77;;;2.33;;
59976;SDS011;45837;51.076;3.578;2024-01-30T06:42:47;17.17;;;3.42;;
59976;SDS011;45837;51.076;3.578;2024-01-30T06:45:12;13.80;;;2.63;;
59976;SDS011;45837;51.076;3.578;2024-01-30T06:47:38;5.43;;;1.98;;
59976;SDS011;45837;51.076;3.578;2024-01-30T06:50:04;10.23;;;2.60;;
59976;SDS011;45837;51.076;3.578;2024-01-30T06:52:30;9.10;;;2.40;;
59976;SDS011;45837;51.076;3.578;2024-01-30T06:54:58;11.77;;;2.13;;
59976;SDS011;45837;51.076;3.578;2024-01-30T06:57:23;10.43;;;2.65;;
59976;SDS011;45837;51.076;3.578;2024-01-30T06:59:49;8.70;;;2.70;;
59976;SDS011;45837;51.076;3.578;2024-01-30T07:02:15;8.55;;;2.50;;
59976;SDS011;45837;51.076;3.578;2024-01-30T07:04:41;7.63;;;2.67;;
59976;SDS011;45837;51.076;3.578;2024-01-30T07:07:07;8.70;;;2.08;;
59976;SDS011;45837;51.076;3.578;2024-01-30T07:09:37;7.88;;;2.20;;
59976;SDS011;45837;51.076;3.578;2024-01-30T07:12:04;7.22;;;1.92;;
59976;SDS011;45837;51.076;3.578;2024-01-30T07:14:29;9.23;;;2.00;;
59976;SDS011;45837;51.076;3.578;2024-01-30T07:16:55;10.75;;;2.22;;
59976;SDS011;45837;51.076;3.578;2024-01-30T07:19:21;10.25;;;2.97;;
59976;SDS011;45837;51.076;3.578;2024-01-30T07:21:50;6.78;;;2.22;;
59976;SDS011;45837;51.076;3.578;2024-01-30T07:24:15;10.80;;;2.15;;
59976;SDS011;45837;51.076;3.578;2024-01-30T07:26:41;6.93;;;2.40;;
59976;SDS011;45837;51.076;3.578;2024-01-30T07:29:07;8.45;;;2.42;;
59976;SDS011;45837;51.076;3.578;2024-01-30T07:31:33;10.52;;;2.47;;
59976;SDS011;45837;51.076;3.578;2024-01-30T07:33:58;7.20;;;2.60;;
59976;SDS011;45837;51.076;3.578;2024-01-30T07:36:24;13.68;;;2.60;;
59976;SDS011;45837;51.076;3.578;2024-01-30T07:38:50;10.68;;;2.70;;
59976;SDS011;45837;51.076;3.578;2024-01-30T07:41:17;9.68;;;2.30;;
59976;SDS011;45837;51.076;3.578;2024-01-30T07:43:43;3.95;;;1.75;;
59976;SDS011;45837;51.076;3.578;2024-01-30T07:46:09;4.05;;;1.65;;
59976;SDS011;45837;51.076;3.578;2024-01-30T07:48:35;7.55;;;1.80;;
59976;SDS011;45837;51.076;3.578;2024-01-30T07:51:01;6.10;;;2.25;;
59976;SDS011;45837;51.076;3.578;2024-01-30T07:53:28;4.40;;;2.05;;
59976;SDS011;45837;51.076;3.578;2024-01-30T07:55:53;7.85;;;2.30;;
59976;SDS011;45837;51.076;3.578;2024-01-30T07:58:19;6.82;;;2.20;;
59976;SDS011;45837;51.076;3.578;2024-01-30T08:00:45;7.18;;;2.13;;
59976;SDS011;45837;51.076;3.578;2024-01-30T08:03:11;5.55;;;2.10;;
59976;SDS011;45837;51.076;3.578;2024-01-30T08:05:37;4.45;;;2.10;;
59976;SDS011;45837;51.076;3.578;2024-01-30T08:08:04;5.18;;;1.80;;
59976;SDS011;45837;51.076;3.578;2024-01-30T08:10:30;5.47;;;2.03;;
59976;SDS011;45837;51.076;3.578;2024-01-30T08:12:56;4.43;;;2.17;;
59976;SDS011;45837;51.076;3.578;2024-01-30T08:15:22;7.22;;;2.50;;
59976;SDS011;45837;51.076;3.578;2024-01-30T08:17:47;6.07;;;2.40;;
59976;SDS011;45837;51.076;3.578;2024-01-30T08:20:13;6.28;;;2.03;;
59976;SDS011;45837;51.076;3.578;2024-01-30T08:22:40;4.97;;;2.20;;
59976;SDS011;45837;51.076;3.578;2024-01-30T08:25:06;6.80;;;2.20;;
59976;SDS011;45837;51.076;3.578;2024-01-30T08:27:33;8.80;;;1.77;;
59976;SDS011;45837;51.076;3.578;2024-01-30T08:30:01;5.00;;;1.92;;
59976;SDS011;45837;51.076;3.578;2024-01-30T08:32:27;4.97;;;2.03;;
59976;SDS011;45837;51.076;3.578;2024-01-30T08:34:53;4.10;;;1.83;;
59976;SDS011;45837;51.076;3.578;2024-01-30T08:37:18;5.38;;;2.10;;
59976;SDS011;45837;51.076;3.578;2024-01-30T08:39:44;3.80;;;1.58;;
59976;SDS011;45837;51.076;3.578;2024-01-30T08:42:10;5.95;;;2.25;;
59976;SDS011;45837;51.076;3.578;2024-01-30T08:44:36;4.63;;;2.08;;
59976;SDS011;45837;51.076;3.578;2024-01-30T08:47:02;5.35;;;2.15;;
59976;SDS011;45837;51.076;3.578;2024-01-30T08:49:28;6.75;;;2.20;;
59976;SDS011;45837;51.076;3.578;2024-01-30T08:51:54;4.88;;;2.05;;
59976;SDS011;45837;51.076;3.578;2024-01-30T08:54:20;7.07;;;2.30;;
59976;SDS011;45837;51.076;3.578;2024-01-30T08:56:45;6.28;;;2.30;;
59976;SDS011;45837;51.076;3.578;2024-01-30T08:59:11;5.72;;;2.10;;
59976;SDS011;45837;51.076;3.578;2024-01-30T09:01:37;5.15;;;2.00;;
59976;SDS011;45837;51.076;3.578;2024-01-30T09:04:03;6.15;;;2.00;;
59976;SDS011;45837;51.076;3.578;2024-01-30T09:06:29;3.88;;;1.85;;
59976;SDS011;45837;51.076;3.578;2024-01-30T09:08:55;4.63;;;2.05;;
59976;SDS011;45837;51.076;3.578;2024-01-30T09:11:23;3.95;;;2.10;;
59976;SDS011;45837;51.076;3.578;2024-01-30T09:13:48;7.10;;;1.88;;
59976;SDS011;45837;51.076;3.578;2024-01-30T09:16:17;3.13;;;1.90;;
59976;SDS011;45837;51.076;3.578;2024-01-30T09:18:43;4.63;;;2.13;;
59976;SDS011;45837;51.076;3.578;2024-01-30T09:21:09;3.25;;;1.70;;
59976;SDS011;45837;51.076;3.578;2024-01-30T09:23:35;5.35;;;1.60;;
59976;SDS011;45837;51.076;3.578;2024-01-30T09:26:01;7.18;;;2.40;;
59976;SDS011;45837;51.076;3.578;2024-01-30T09:28:27;4.00;;;2.28;;
59976;SDS011;45837;51.076;3.578;2024-01-30T09:30:52;4.28;;;2.20;;
59976;SDS011;45837;51.076;3.578;2024-01-30T09:33:20;5.65;;;1.98;;
59976;SDS011;45837;51.076;3.578;2024-01-30T09:35:46;3.40;;;2.08;;
59976;SDS011;45837;51.076;3.578;2024-01-30T09:38:11;3.67;;;1.80;;
59976;SDS011;45837;51.076;3.578;2024-01-30T09:40:37;4.60;;;2.10;;
59976;SDS011;45837;51.076;3.578;2024-01-30T09:43:03;8.93;;;2.20;;
59976;SDS011;45837;51.076;3.578;2024-01-30T09:45:29;5.55;;;2.33;;
59976;SDS011;45837;51.076;3.578;2024-01-30T09:47:58;6.25;;;2.33;;
59976;SDS011;45837;51.076;3.578;2024-01-30T09:50:24;5.25;;;1.90;;
59976;SDS011;45837;51.076;3.578;2024-01-30T09:52:51;4.45;;;1.98;;
59976;SDS011;45837;51.076;3.578;2024-01-30T09:55:23;3.90;;;1.80;;
59976;SDS011;45837;51.076;3.578;2024-01-30T09:57:49;4.65;;;2.08;;
59976;SDS011;45837;51.076;3.578;2024-01-30T10:00:15;5.47;;;1.70;;
59976;SDS011;45837;51.076;3.578;2024-01-30T10:02:41;3.88;;;1.85;;
59976;SDS011;45837;51.076;3.578;2024-01-30T10:05:08;4.72;;;1.90;;
59976;SDS011;45837;51.076;3.578;2024-01-30T10:07:34;4.45;;;1.90;;
59976;SDS011;45837;51.076;3.578;2024-01-30T10:10:00;4.60;;;1.98;;
59976;SDS011;45837;51.076;3.578;2024-01-30T10:12:26;3.22;;;1.77;;
59976;SDS011;45837;51.076;3.578;2024-01-30T10:14:52;3.55;;;1.98;;
59976;SDS011;45837;51.076;3.578;2024-01-30T10:17:19;2.75;;;1.63;;
59976;SDS011;45837;51.076;3.578;2024-01-30T10:19:46;4.22;;;1.70;;
59976;SDS011;45837;51.076;3.578;2024-01-30T10:22:13;4.75;;;1.63;;
59976;SDS011;45837;51.076;3.578;2024-01-30T10:24:39;6.00;;;2.00;;
59976;SDS011;45837;51.076;3.578;2024-01-30T10:27:05;4.60;;;1.80;;
59976;SDS011;45837;51.076;3.578;2024-01-30T10:29:32;3.63;;;1.92;;
59976;SDS011;45837;51.076;3.578;2024-01-30T10:32:01;3.45;;;1.67;;
59976;SDS011;45837;51.076;3.578;2024-01-30T10:34:27;2.70;;;1.77;;
59976;SDS011;45837;51.076;3.578;2024-01-30T10:37:15;4.45;;;2.08;;
59976;SDS011;45837;51.076;3.578;2024-01-30T10:39:42;4.68;;;1.83;;
59976;SDS011;45837;51.076;3.578;2024-01-30T10:42:15;4.47;;;1.73;;
59976;SDS011;45837;51.076;3.578;2024-01-30T10:47:30;3.70;;;1.98;;
59976;SDS011;45837;51.076;3.578;2024-01-30T10:49:56;3.45;;;1.92;;
59976;SDS011;45837;51.076;3.578;2024-01-30T10:52:25;7.10;;;1.45;;
59976;SDS011;45837;51.076;3.578;2024-01-30T10:54:53;4.68;;;1.50;;
59976;SDS011;45837;51.076;3.578;2024-01-30T10:57:19;3.25;;;1.60;;
59976;SDS011;45837;51.076;3.578;2024-01-30T10:59:48;3.67;;;1.60;;
59976;SDS011;45837;51.076;3.578;2024-01-30T11:02:16;3.75;;;1.60;;
59976;SDS011;45837;51.076;3.578;2024-01-30T11:04:43;2.92;;;1.50;;
59976;SDS011;45837;51.076;3.578;2024-01-30T11:07:17;2.15;;;1.30;;
59976;SDS011;45837;51.076;3.578;2024-01-30T11:09:52;4.28;;;1.70;;
59976;SDS011;45837;51.076;3.578;2024-01-30T11:12:22;3.13;;;1.60;;
59976;SDS011;45837;51.076;3.578;2024-01-30T11:14:50;3.67;;;1.77;;
59976;SDS011;45837;51.076;3.578;2024-01-30T11:17:28;3.25;;;1.70;;
59976;SDS011;45837;51.076;3.578;2024-01-30T11:20:04;5.30;;;1.75;;
59976;SDS011;45837;51.076;3.578;2024-01-30T11:22:30;3.90;;;1.90;;
59976;SDS011;45837;51.076;3.578;2024-01-30T11:24:56;5.63;;;1.90;;
59976;SDS011;45837;51.076;3.578;2024-01-30T11:27:22;2.67;;;1.55;;
59976;SDS011;45837;51.076;3.578;2024-01-30T11:29:49;2.92;;;1.60;;
59976;SDS011;45837;51.076;3.578;2024-01-30T11:32:21;3.03;;;1.60;;
59976;SDS011;45837;51.076;3.578;2024-01-30T11:34:50;3.67;;;1.70;;
59976;SDS011;45837;51.076;3.578;2024-01-30T11:37:20;4.03;;;1.80;;
59976;SDS011;45837;51.076;3.578;2024-01-30T11:39:50;5.25;;;1.55;;
59976;SDS011;45837;51.076;3.578;2024-01-30T11:42:16;2.63;;;1.60;;
59976;SDS011;45837;51.076;3.578;2024-01-30T11:44:46;3.03;;;1.33;;
59976;SDS011;45837;51.076;3.578;2024-01-30T11:47:13;2.22;;;1.60;;
59976;SDS011;45837;51.076;3.578;2024-01-30T11:49:40;1.98;;;1.33;;
59976;SDS011;45837;51.076;3.578;2024-01-30T11:52:05;3.33;;;1.80;;
59976;SDS011;45837;51.076;3.578;2024-01-30T11:54:32;2.90;;;1.38;;
59976;SDS011;45837;51.076;3.578;2024-01-30T11:56:59;3.95;;;1.60;;
59976;SDS011;45837;51.076;3.578;2024-01-30T11:59:25;3.15;;;1.42;;
59976;SDS011;45837;51.076;3.578;2024-01-30T12:01:51;3.47;;;1.52;;
59976;SDS011;45837;51.076;3.578;2024-01-30T12:04:17;2.30;;;1.58;;
59976;SDS011;45837;51.076;3.578;2024-01-30T12:06:43;3.90;;;1.80;;
59976;SDS011;45837;51.076;3.578;2024-01-30T12:09:09;3.58;;;1.92;;
59976;SDS011;45837;51.076;3.578;2024-01-30T12:11:46;4.15;;;1.42;;
59976;SDS011;45837;51.076;3.578;2024-01-30T12:14:13;3.03;;;1.58;;
59976;SDS011;45837;51.076;3.578;2024-01-30T12:16:40;1.90;;;1.20;;
59976;SDS011;45837;51.076;3.578;2024-01-30T12:19:06;3.17;;;1.65;;
59976;SDS011;45837;51.076;3.578;2024-01-30T12:21:33;2.03;;;1.13;;
59976;SDS011;45837;51.076;3.578;2024-01-30T12:23:59;3.05;;;1.38;;
59976;SDS011;45837;51.076;3.578;2024-01-30T12:26:25;3.13;;;1.55;;
59976;SDS011;45837;51.076;3.578;2024-01-30T12:28:55;4.00;;;1.30;;
59976;SDS011;45837;51.076;3.578;2024-01-30T12:31:26;3.90;;;1.58;;
59976;SDS011;45837;51.076;3.578;2024-01-30T12:33:53;3.10;;;1.42;;
59976;SDS011;45837;51.076;3.578;2024-01-30T12:36:19;4.95;;;1.85;;
59976;SDS011;45837;51.076;3.578;2024-01-30T12:38:47;2.78;;;1.25;;
59976;SDS011;45837;51.076;3.578;2024-01-30T12:41:12;2.03;;;1.27;;
59976;SDS011;45837;51.076;3.578;2024-01-30T12:43:38;2.22;;;1.33;;
59976;SDS011;45837;51.076;3.578;2024-01-30T12:46:04;2.72;;;1.73;;
59976;SDS011;45837;51.076;3.578;2024-01-30T12:48:30;3.15;;;1.55;;
59976;SDS011;45837;51.076;3.578;2024-01-30T12:50:56;2.58;;;1.20;;
59976;SDS011;45837;51.076;3.578;2024-01-30T12:53:22;2.97;;;1.30;;
59976;SDS011;45837;51.076;3.578;2024-01-30T12:55:48;2.10;;;1.27;;
59976;SDS011;45837;51.076;3.578;2024-01-30T12:58:15;4.07;;;1.38;;
59976;SDS011;45837;51.076;3.578;2024-01-30T13:00:41;2.88;;;1.20;;
59976;SDS011;45837;51.076;3.578;2024-01-30T13:03:10;2.40;;;1.15;;
59976;SDS011;45837;51.076;3.578;2024-01-30T13:05:36;3.40;;;1.48;;
59976;SDS011;45837;51.076;3.578;2024-01-30T13:08:02;2.50;;;1.30;;
59976;SDS011;45837;51.076;3.578;2024-01-30T13:10:28;3.05;;;1.33;;
59976;SDS011;45837;51.076;3.578;2024-01-30T13:12:54;1.85;;;1.20;;
59976;SDS011;45837;51.076;3.578;2024-01-30T13:15:20;3.25;;;1.58;;
59976;SDS011;45837;51.076;3.578;2024-01-30T13:17:47;3.17;;;1.48;;
59976;SDS011;45837;51.076;3.578;2024-01-30T13:20:14;2.47;;;1.10;;
59976;SDS011;45837;51.076;3.578;2024-01-30T13:22:44;3.17;;;1.30;;
59976;SDS011;45837;51.076;3.578;2024-01-30T13:25:10;3.22;;;1.40;;
59976;SDS011;45837;51.076;3.578;2024-01-30T13:27:36;4.45;;;1.33;;
59976;SDS011;45837;51.076;3.578;2024-01-30T13:30:02;2.70;;;1.10;;
59976;SDS011;45837;51.076;3.578;2024-01-30T13:32:29;3.25;;;1.65;;
59976;SDS011;45837;51.076;3.578;2024-01-30T13:34:56;3.33;;;1.52;;
59976;SDS011;45837;51.076;3.578;2024-01-30T13:37:22;4.03;;;1.60;;
59976;SDS011;45837;51.076;3.578;2024-01-30T13:39:48;3.20;;;1.40;;
59976;SDS011;45837;51.076;3.578;2024-01-30T13:42:14;2.35;;;1.20;;
59976;SDS011;45837;51.076;3.578;2024-01-30T13:44:39;3.60;;;1.52;;
59976;SDS011;45837;51.076;3.578;2024-01-30T13:47:08;3.08;;;1.73;;
59976;SDS011;45837;51.076;3.578;2024-01-30T13:49:36;3.85;;;1.50;;
59976;SDS011;45837;51.076;3.578;2024-01-30T13:52:01;1.95;;;1.25;;
59976;SDS011;45837;51.076;3.578;2024-01-30T13:54:30;3.22;;;1.10;;
59976;SDS011;45837;51.076;3.578;2024-01-30T13:56:56;2.55;;;1.65;;
59976;SDS011;45837;51.076;3.578;2024-01-30T13:59:22;2.92;;;1.40;;
59976;SDS011;45837;51.076;3.578;2024-01-30T14:01:50;2.67;;;1.10;;
59976;SDS011;45837;51.076;3.578;2024-01-30T14:04:16;2.83;;;1.20;;
59976;SDS011;45837;51.076;3.578;2024-01-30T14:06:42;2.80;;;1.40;;
59976;SDS011;45837;51.076;3.578;2024-01-30T14:09:08;3.10;;;1.52;;
59976;SDS011;45837;51.076;3.578;2024-01-30T14:11:35;3.10;;;1.10;;
59976;SDS011;45837;51.076;3.578;2024-01-30T14:14:01;2.00;;;1.00;;
59976;SDS011;45837;51.076;3.578;2024-01-30T14:16:27;2.78;;;1.30;;
59976;SDS011;45837;51.076;3.578;2024-01-30T14:18:54;4.43;;;1.38;;
59976;SDS011;45837;51.076;3.578;2024-01-30T14:21:19;2.85;;;1.15;;
59976;SDS011;45837;51.076;3.578;2024-01-30T14:23:46;2.80;;;1.30;;
59976;SDS011;45837;51.076;3.578;2024-01-30T14:26:12;3.58;;;1.60;;
59976;SDS011;45837;51.076;3.578;2024-01-30T14:28:38;2.20;;;1.25;;
59976;SDS011;45837;51.076;3.578;2024-01-30T14:31:04;2.72;;;1.25;;
59976;SDS011;45837;51.076;3.578;2024-01-30T14:33:30;3.03;;;1.38;;
59976;SDS011;45837;51.076;3.578;2024-01-30T14:35:56;2.10;;;1.02;;
59976;SDS011;45837;51.076;3.578;2024-01-30T14:38:22;3.67;;;1.10;;
59976;SDS011;45837;51.076;3.578;2024-01-30T14:40:50;2.85;;;1.25;;
59976;SDS011;45837;51.076;3.578;2024-01-30T14:43:16;2.60;;;1.40;;
59976;SDS011;45837;51.076;3.578;2024-01-30T14:45:41;3.20;;;1.60;;